createdAt,value
2022-12-05T00:01:59.935Z,97487.88
2022-12-05T00:04:27.482Z,97492.19
2022-12-05T00:06:54.992Z,97491.56
2022-12-05T00:09:23.798Z,97496.53
2022-12-05T00:11:51.388Z,97497.19
2022-12-05T00:14:18.971Z,97502.84
2022-12-05T00:16:46.544Z,97505.34
2022-12-05T00:19:16.320Z,97511.81
2022-12-05T00:21:43.983Z,97513.66
2022-12-05T00:24:14.297Z,97519.75
2022-12-05T00:26:43.785Z,97529.41
2022-12-05T00:29:11.367Z,97523.59
2022-12-05T00:31:38.951Z,97526.94
2022-12-05T00:34:06.665Z,97532.25
2022-12-05T00:36:35.838Z,97531.72
2022-12-05T00:39:07.043Z,97524.75
2022-12-05T00:41:34.503Z,97527.09
2022-12-05T00:44:04.384Z,97533.25
2022-12-05T00:46:33.434Z,97525.59
2022-12-05T00:49:02.159Z,97537.22
2022-12-05T00:51:31.353Z,97538.88
2022-12-05T00:54:00.117Z,97541.69
2022-12-05T00:56:29.002Z,97536.88
2022-12-05T00:58:57.084Z,97531.56
2022-12-05T01:01:28.430Z,97547.19
2022-12-05T01:03:59.043Z,97545.84
2022-12-05T01:06:28.419Z,97555.63
2022-12-05T01:08:56.791Z,97555.63
2022-12-05T01:11:25.539Z,97564.31
2022-12-05T01:13:53.727Z,97566.47
2022-12-05T01:16:24.755Z,97559.34
2022-12-05T01:18:54.334Z,97560.47
2022-12-05T01:21:22.622Z,97558.84
2022-12-05T01:23:50.406Z,97559.13
2022-12-05T01:26:21.103Z,97570.59
2022-12-05T01:28:48.954Z,97574.59
2022-12-05T01:31:21.627Z,97576.25
2022-12-05T01:33:49.523Z,97576.59
2022-12-05T01:36:19.025Z,97588.06
2022-12-05T01:38:46.609Z,97586.88
2022-12-05T01:41:16.945Z,97587.72
2022-12-05T01:43:55.192Z,97587.53
2022-12-05T01:46:22.745Z,97588.06
2022-12-05T01:48:52.786Z,97599.19
2022-12-05T01:51:21.868Z,97602.69
2022-12-05T01:53:49.395Z,97605.00
2022-12-05T01:56:17.985Z,97619.13
2022-12-05T01:58:46.543Z,97623.94
2022-12-05T02:01:16.203Z,97618.44
2022-12-05T02:03:45.916Z,97626.25
2022-12-05T02:06:14.461Z,97623.75
2022-12-05T02:08:45.548Z,97621.94
2022-12-05T02:11:13.147Z,97623.44
2022-12-05T02:14:04.905Z,97626.09
2022-12-05T02:16:44.636Z,97627.25
2022-12-05T02:19:42.189Z,97628.25
2022-12-05T02:22:38.215Z,97618.09
2022-12-05T02:25:19.298Z,97632.91
2022-12-05T02:28:04.044Z,97635.38
2022-12-05T02:30:40.344Z,97648.03
2022-12-05T02:33:17.120Z,97653.34
2022-12-05T02:35:56.133Z,97652.66
2022-12-05T02:38:31.012Z,97655.00
2022-12-05T02:41:08.759Z,97661.47
2022-12-05T02:43:40.966Z,97662.97
2022-12-05T02:46:14.027Z,97669.41
2022-12-05T02:48:44.240Z,97668.78
2022-12-05T02:51:15.771Z,97675.78
2022-12-05T02:53:45.419Z,97672.22
2022-12-05T02:56:13.570Z,97672.19
2022-12-05T02:58:48.136Z,97682.84
2022-12-05T03:01:17.247Z,97684.34
2022-12-05T03:03:45.226Z,97692.81
2022-12-05T03:06:16.276Z,97696.31
2022-12-05T03:08:49.558Z,97687.69
2022-12-05T03:11:17.417Z,97698.78
2022-12-05T03:13:49.855Z,97705.03
2022-12-05T03:16:24.143Z,97704.59
2022-12-05T03:18:56.339Z,97694.16
2022-12-05T03:21:31.904Z,97693.84
2022-12-05T03:24:03.612Z,97694.47
2022-12-05T03:26:41.812Z,97694.81
2022-12-05T03:29:21.820Z,97687.94
2022-12-05T03:32:00.165Z,97664.22
2022-12-05T03:34:40.672Z,97661.06
2022-12-05T03:37:13.640Z,97645.13
2022-12-05T03:39:46.315Z,97654.63
2022-12-05T03:42:16.961Z,97666.53
2022-12-05T03:44:51.464Z,97676.88
2022-12-05T03:47:26.024Z,97690.31
2022-12-05T03:49:59.387Z,97692.13
2022-12-05T03:52:38.001Z,97691.66
2022-12-05T03:55:19.200Z,97698.84
2022-12-05T03:57:54.415Z,97709.72
2022-12-05T04:00:24.405Z,97717.88
2022-12-05T04:02:56.559Z,97731.63
2022-12-05T04:05:27.718Z,97724.41
2022-12-05T04:08:00.952Z,97730.19
2022-12-05T04:10:32.667Z,97735.66
2022-12-05T04:13:17.724Z,97741.44
2022-12-05T04:16:08.830Z,97747.47
2022-12-05T04:18:43.264Z,97747.44
2022-12-05T04:21:29.222Z,97750.44
2022-12-05T04:24:11.011Z,97749.19
2022-12-05T04:26:45.099Z,97755.53
2022-12-05T04:29:20.222Z,97759.81
2022-12-05T04:31:50.955Z,97757.50
2022-12-05T04:34:22.377Z,97768.97
2022-12-05T04:36:56.035Z,97771.38
2022-12-05T04:39:28.200Z,97766.44
2022-12-05T04:41:59.324Z,97773.22
2022-12-05T04:44:30.315Z,97772.78
2022-12-05T04:47:01.354Z,97776.91
2022-12-05T04:49:32.251Z,97768.31
2022-12-05T04:52:03.995Z,97776.34
2022-12-05T04:54:35.436Z,97767.75
2022-12-05T04:57:07.813Z,97773.84
2022-12-05T04:59:36.060Z,97780.94
2022-12-05T05:02:08.961Z,97781.09
2022-12-05T05:04:41.795Z,97774.19
2022-12-05T05:07:10.834Z,97767.53
2022-12-05T05:09:39.919Z,97781.50
2022-12-05T05:12:08.183Z,97786.81
2022-12-05T05:14:35.927Z,97782.84
2022-12-05T05:17:03.502Z,97786.06
2022-12-05T05:19:31.135Z,97799.84
2022-12-05T05:22:00.311Z,97795.97
2022-12-05T05:24:27.803Z,97799.19
2022-12-05T05:26:57.433Z,97798.50
2022-12-05T05:29:25.504Z,97793.59
2022-12-05T05:31:52.925Z,97794.72
2022-12-05T05:34:20.350Z,97798.94
2022-12-05T05:36:52.512Z,97794.97
2022-12-05T05:39:21.378Z,97812.22
2022-12-05T05:41:48.809Z,97803.44
2022-12-05T05:44:16.313Z,97812.47
2022-12-05T05:46:43.815Z,97810.50
2022-12-05T05:49:11.332Z,97802.97
2022-12-05T05:51:38.772Z,97808.28
2022-12-05T05:54:06.441Z,97806.00
2022-12-05T05:56:35.232Z,97806.47
2022-12-05T05:59:04.573Z,97808.19
2022-12-05T06:01:32.318Z,97812.16
2022-12-05T06:04:00.333Z,97822.66
2022-12-05T06:06:28.327Z,97827.41
2022-12-05T06:08:55.791Z,97825.34
2022-12-05T06:11:26.503Z,97820.91
2022-12-05T06:13:55.866Z,97822.91
2022-12-05T06:16:23.790Z,97825.56
2022-12-05T06:18:52.299Z,97829.09
2022-12-05T06:21:20.417Z,97828.22
2022-12-05T06:23:48.166Z,97835.25
2022-12-05T06:26:17.498Z,97841.47
2022-12-05T06:28:45.315Z,97840.97
2022-12-05T06:31:16.204Z,97840.53
2022-12-05T06:33:44.601Z,97842.78
2022-12-05T06:36:14.666Z,97847.28
2022-12-05T06:38:42.720Z,97852.31
2022-12-05T06:41:15.439Z,97852.56
2022-12-05T06:43:43.492Z,97851.28
2022-12-05T06:46:13.672Z,97864.34
2022-12-05T06:48:42.534Z,97862.25
2022-12-05T06:51:11.614Z,97860.00
2022-12-05T06:53:39.548Z,97863.81
2022-12-05T06:56:12.331Z,97867.97
2022-12-05T06:58:39.803Z,97869.53
2022-12-05T07:01:28.006Z,97865.84
2022-12-05T07:03:56.852Z,97865.31
2022-12-05T07:06:24.507Z,97866.09
2022-12-05T07:08:52.002Z,97869.38
2022-12-05T07:11:19.496Z,97858.06
2022-12-05T07:13:46.992Z,97867.00
2022-12-05T07:16:14.600Z,97871.88
2022-12-05T07:18:42.044Z,97871.03
2022-12-05T07:21:15.159Z,97877.03
2022-12-05T07:23:43.537Z,97868.59
2022-12-05T07:26:13.099Z,97868.81
2022-12-05T07:28:40.534Z,97873.06
2022-12-05T07:31:10.706Z,97885.19
2022-12-05T07:33:38.771Z,97891.28
2022-12-05T07:36:08.919Z,97888.94
2022-12-05T07:38:37.945Z,97898.41
2022-12-05T07:41:11.735Z,97899.00
2022-12-05T07:43:41.087Z,97904.50
2022-12-05T07:46:11.161Z,97911.09
2022-12-05T07:48:38.838Z,97918.78
2022-12-05T07:51:08.672Z,97911.34
2022-12-05T07:53:40.434Z,97915.13
2022-12-05T07:56:09.432Z,97902.44
2022-12-05T07:58:37.822Z,97914.09
2022-12-05T08:01:09.648Z,97914.97
2022-12-05T08:03:38.301Z,97916.47
2022-12-05T08:06:07.556Z,97905.88
2022-12-05T08:08:35.415Z,97903.38
2022-12-05T08:11:09.047Z,97904.09
2022-12-05T08:13:37.076Z,97916.91
2022-12-05T08:16:05.876Z,97924.50
2022-12-05T08:18:33.751Z,97925.03
2022-12-05T08:21:04.200Z,97922.94
2022-12-05T08:23:32.416Z,97931.69
2022-12-05T08:26:03.233Z,97924.25
2022-12-05T08:28:33.065Z,97930.00
2022-12-05T08:31:05.599Z,97932.06
2022-12-05T08:33:33.152Z,97937.13
2022-12-05T08:36:02.114Z,97941.47
2022-12-05T08:38:29.436Z,97938.31
2022-12-05T08:40:56.962Z,97949.94
2022-12-05T08:43:24.391Z,97954.97
2022-12-05T08:45:54.674Z,97946.22
2022-12-05T08:48:29.033Z,97960.03
2022-12-05T08:50:57.635Z,97960.28
2022-12-05T08:53:25.167Z,97959.81
2022-12-05T08:55:52.623Z,97961.34
2022-12-05T08:58:20.150Z,97951.75
2022-12-05T09:00:47.601Z,97954.94
2022-12-05T09:03:16.367Z,97965.69
2022-12-05T09:05:43.837Z,97974.88
2022-12-05T09:08:11.488Z,97984.31
2022-12-05T09:10:39.350Z,97988.88
2022-12-05T09:13:06.783Z,97988.69
2022-12-05T09:15:34.249Z,97997.13
2022-12-05T09:18:01.734Z,97996.91
2022-12-05T09:20:30.498Z,98011.38
2022-12-05T09:22:57.935Z,97999.25
2022-12-05T09:25:25.361Z,97999.00
2022-12-05T09:27:54.692Z,97999.69
2022-12-05T09:30:22.137Z,98003.34
2022-12-05T09:32:49.585Z,97998.72
2022-12-05T09:35:17.201Z,97996.41
2022-12-05T09:37:45.946Z,97999.06
2022-12-05T09:40:17.505Z,98010.66
2022-12-05T09:43:03.078Z,98011.38
2022-12-05T09:45:37.764Z,98019.03
2022-12-05T09:48:08.676Z,98016.38
2022-12-05T09:50:44.123Z,98013.88
2022-12-05T09:53:28.269Z,98017.66
2022-12-05T09:56:01.445Z,98018.88
2022-12-05T09:58:41.810Z,98006.44
2022-12-05T10:01:26.200Z,98010.38
2022-12-05T10:04:13.263Z,97999.91
2022-12-05T10:06:51.310Z,98003.41
2022-12-05T10:09:43.038Z,98003.53
2022-12-05T10:12:19.587Z,98005.84
2022-12-05T10:15:01.941Z,98015.84
2022-12-05T10:17:34.290Z,98015.19
2022-12-05T10:20:06.494Z,98005.84
2022-12-05T10:22:44.104Z,98003.25
2022-12-05T10:25:15.781Z,98006.00
2022-12-05T10:27:48.447Z,98013.50
2022-12-05T10:30:19.672Z,98011.50
2022-12-05T10:32:53.216Z,98005.06
2022-12-05T10:35:23.220Z,98014.94
2022-12-05T10:37:54.516Z,98008.88
2022-12-05T10:40:23.621Z,98011.88
2022-12-05T10:42:51.572Z,98015.31
2022-12-05T10:45:21.353Z,98010.91
2022-12-05T10:47:50.480Z,98011.97
2022-12-05T10:50:26.162Z,98019.63
2022-12-05T10:52:54.915Z,98022.47
2022-12-05T10:55:31.188Z,98024.38
2022-12-05T10:58:15.655Z,98013.63
2022-12-05T11:00:49.012Z,98016.81
2022-12-05T11:03:27.283Z,98015.97
2022-12-05T11:05:57.088Z,98015.00
2022-12-05T11:08:41.762Z,98019.34
2022-12-05T11:11:23.557Z,98009.81
2022-12-05T11:13:56.233Z,98002.22
2022-12-05T11:16:26.260Z,98009.22
2022-12-05T11:18:54.307Z,98008.34
2022-12-05T11:21:21.878Z,98007.97
2022-12-05T11:23:49.928Z,97999.97
2022-12-05T11:26:34.691Z,97996.22
2022-12-05T11:29:02.199Z,97997.09
2022-12-05T11:31:31.573Z,97991.72
2022-12-05T11:34:03.737Z,97994.34
2022-12-05T11:36:40.967Z,97992.56
2022-12-05T11:39:12.751Z,97990.03
2022-12-05T11:42:08.062Z,97996.34
2022-12-05T11:44:53.437Z,97989.97
2022-12-05T11:47:37.119Z,97988.81
2022-12-05T11:50:22.337Z,97977.06
2022-12-05T11:53:00.256Z,97975.19
2022-12-05T11:55:36.296Z,97974.81
2022-12-05T11:58:29.841Z,97966.41
2022-12-05T12:01:04.779Z,97971.97
2022-12-05T12:03:49.648Z,97966.59
2022-12-05T12:06:28.621Z,97961.84
2022-12-05T12:09:15.171Z,97960.53
2022-12-05T12:11:49.438Z,97962.13
2022-12-05T12:14:26.878Z,97960.69
2022-12-05T12:17:02.713Z,97966.34
2022-12-05T12:19:52.759Z,97964.63
2022-12-05T12:22:42.707Z,97969.28
2022-12-05T12:25:25.765Z,97973.63
2022-12-05T12:28:05.131Z,97976.78
2022-12-05T12:30:47.890Z,97979.56
2022-12-05T12:33:27.475Z,97980.44
2022-12-05T12:36:03.555Z,97972.88
2022-12-05T12:38:50.953Z,97983.25
2022-12-05T12:41:39.964Z,97981.63
2022-12-05T12:44:26.766Z,97984.84
2022-12-05T12:47:00.450Z,97980.56
2022-12-05T12:49:42.306Z,97987.75
2022-12-05T12:52:14.685Z,97988.88
2022-12-05T12:55:11.487Z,97982.66
2022-12-05T12:57:56.467Z,97982.53
2022-12-05T13:00:35.806Z,97977.13
2022-12-05T13:03:11.915Z,97972.63
2022-12-05T13:05:46.515Z,97972.50
2022-12-05T13:08:22.630Z,97978.66
2022-12-05T13:10:50.312Z,97975.38
2022-12-05T13:13:22.586Z,97971.72
2022-12-05T13:15:52.615Z,97971.97
2022-12-05T13:18:23.736Z,97967.84
2022-12-05T13:20:53.912Z,97973.47
2022-12-05T13:23:24.954Z,97966.84
2022-12-05T13:25:55.404Z,97977.69
2022-12-05T13:28:29.736Z,97969.50
2022-12-05T13:31:01.372Z,97984.78
2022-12-05T13:33:33.624Z,97979.81
2022-12-05T13:36:25.828Z,97978.19
2022-12-05T13:39:16.039Z,97978.28
2022-12-05T13:42:03.464Z,97989.06
2022-12-05T13:44:35.642Z,97989.09
2022-12-05T13:47:07.333Z,97990.72
2022-12-05T13:49:44.792Z,97977.78
2022-12-05T13:52:17.360Z,97982.22
2022-12-05T13:54:50.604Z,97978.00
2022-12-05T13:57:46.215Z,97982.56
2022-12-05T14:00:29.396Z,97978.47
2022-12-05T14:03:01.676Z,97979.81
2022-12-05T14:05:42.830Z,97979.00
2022-12-05T14:08:46.654Z,97982.63
2022-12-05T14:11:14.157Z,97982.44
2022-12-05T14:13:44.810Z,97989.00
2022-12-05T14:16:49.857Z,97987.44
2022-12-05T14:19:47.748Z,97985.13
2022-12-05T14:22:40.894Z,97989.59
2022-12-05T14:25:18.372Z,97981.44
2022-12-05T14:27:55.892Z,97986.28
2022-12-05T14:30:27.283Z,97987.53
2022-12-05T14:32:55.605Z,97977.63
2022-12-05T14:35:29.848Z,97978.66
2022-12-05T14:38:02.235Z,97979.66
2022-12-05T14:40:33.199Z,97976.00
2022-12-05T14:43:02.828Z,97980.38
2022-12-05T14:45:38.751Z,97976.44
2022-12-05T14:48:26.587Z,97972.88
2022-12-05T14:50:55.712Z,97979.34
2022-12-05T14:53:30.796Z,97978.66
2022-12-05T14:56:03.013Z,97981.44
2022-12-05T14:58:35.660Z,97978.91
2022-12-05T15:01:07.369Z,97982.25
2022-12-05T15:03:38.186Z,97976.31
2022-12-05T15:06:08.024Z,97986.81
2022-12-05T15:08:46.061Z,97982.47
2022-12-05T15:11:28.020Z,97987.22
2022-12-05T15:13:59.405Z,97978.09
2022-12-05T15:16:29.859Z,97986.13
2022-12-05T15:19:02.730Z,97990.84
2022-12-05T15:21:34.210Z,97987.09
2022-12-05T15:24:04.827Z,97989.31
2022-12-05T15:26:48.267Z,97989.06
2022-12-05T15:29:25.203Z,97992.22
2022-12-05T15:31:55.427Z,97991.34
2022-12-05T15:34:26.760Z,97996.41
2022-12-05T15:36:59.435Z,97995.75
2022-12-05T15:39:28.654Z,97991.53
2022-12-05T15:41:58.870Z,97990.44
2022-12-05T15:44:35.918Z,97991.66
2022-12-05T15:47:05.332Z,97997.44
2022-12-05T15:49:32.793Z,97999.81
2022-12-05T15:52:08.094Z,98004.13
2022-12-05T15:54:39.716Z,98006.72
2022-12-05T15:57:13.491Z,98006.56
2022-12-05T15:59:46.912Z,98017.25
2022-12-05T16:02:17.698Z,98019.72
2022-12-05T16:04:50.331Z,98015.50
2022-12-05T16:07:17.944Z,98018.84
2022-12-05T16:09:47.420Z,98024.34
2022-12-05T16:12:27.896Z,98009.41
2022-12-05T16:14:59.997Z,98012.16
2022-12-05T16:17:30.761Z,98023.03
2022-12-05T16:20:11.912Z,98027.31
2022-12-05T16:22:45.162Z,98024.31
2022-12-05T16:25:17.538Z,98029.50
2022-12-05T16:27:57.582Z,98031.63
2022-12-05T16:30:25.810Z,98032.44
2022-12-05T16:33:00.698Z,98036.78
2022-12-05T16:35:34.656Z,98036.56
2022-12-05T16:38:07.851Z,98039.16
2022-12-05T16:40:39.339Z,98038.00
2022-12-05T16:43:17.705Z,98045.94
2022-12-05T16:45:47.565Z,98044.25
2022-12-05T16:48:17.868Z,98048.31
2022-12-05T16:50:45.530Z,98044.84
2022-12-05T16:53:30.757Z,98049.53
2022-12-05T16:56:00.900Z,98044.16
2022-12-05T16:58:31.548Z,98037.69
2022-12-05T17:01:04.329Z,98051.16
2022-12-05T17:03:35.187Z,98052.66
2022-12-05T17:06:03.537Z,98049.09
2022-12-05T17:08:30.955Z,98059.75
2022-12-05T17:11:01.708Z,98046.13
2022-12-05T17:13:29.289Z,98051.53
2022-12-05T17:15:56.810Z,98057.19
2022-12-05T17:18:30.912Z,98058.81
2022-12-05T17:21:02.104Z,98058.72
2022-12-05T17:23:32.452Z,98054.78
2022-12-05T17:26:01.254Z,98057.34
2022-12-05T17:28:28.698Z,98057.44
2022-12-05T17:30:56.243Z,98065.88
2022-12-05T17:33:24.110Z,98055.31
2022-12-05T17:35:52.004Z,98061.38
2022-12-05T17:38:19.495Z,98063.59
2022-12-05T17:40:47.741Z,98061.28
2022-12-05T17:43:23.029Z,98065.03
2022-12-05T17:45:52.600Z,98056.22
2022-12-05T17:48:20.444Z,98064.56
2022-12-05T17:50:50.203Z,98062.69
2022-12-05T17:53:20.866Z,98061.38
2022-12-05T17:55:48.976Z,98056.75
2022-12-05T17:58:18.516Z,98052.50
2022-12-05T18:00:47.078Z,98052.34
2022-12-05T18:03:16.270Z,98046.91
2022-12-05T18:05:43.776Z,98052.81
2022-12-05T18:08:11.702Z,98051.03
2022-12-05T18:10:42.577Z,98046.66
2022-12-05T18:13:10.654Z,98047.72
2022-12-05T18:15:42.958Z,98050.66
2022-12-05T18:18:14.479Z,98046.56
2022-12-05T18:20:41.939Z,98048.56
2022-12-05T18:23:09.362Z,98048.84
2022-12-05T18:25:36.835Z,98050.44
2022-12-05T18:28:04.418Z,98048.56
2022-12-05T18:30:31.856Z,98054.84
2022-12-05T18:33:00.692Z,98061.84
2022-12-05T18:35:41.044Z,98064.78
2022-12-05T18:38:09.006Z,98065.78
2022-12-05T18:40:36.534Z,98056.97
2022-12-05T18:43:04.367Z,98065.94
2022-12-05T18:45:31.883Z,98064.78
2022-12-05T18:48:16.384Z,98060.47
2022-12-05T18:50:48.424Z,98066.47
2022-12-05T18:53:15.883Z,98064.78
2022-12-05T18:56:05.359Z,98069.97
2022-12-05T18:58:30.753Z,98065.47
2022-12-05T19:01:05.438Z,98075.88
2022-12-05T19:03:34.807Z,98080.06
2022-12-05T19:06:02.562Z,98080.59
2022-12-05T19:08:30.057Z,98089.16
2022-12-05T19:10:57.556Z,98085.06
2022-12-05T19:13:25.068Z,98087.50
2022-12-05T19:15:52.558Z,98084.66
2022-12-05T19:18:19.974Z,98079.22
2022-12-05T19:20:52.261Z,98082.31
2022-12-05T19:23:19.699Z,98085.38
2022-12-05T19:25:47.179Z,98087.50
2022-12-05T19:28:14.622Z,98077.00
2022-12-05T19:30:42.092Z,98077.03
2022-12-05T19:33:09.543Z,98082.25
2022-12-05T19:35:37.740Z,98077.25
2022-12-05T19:38:06.518Z,98084.31
2022-12-05T19:40:33.964Z,98080.22
2022-12-05T19:43:01.387Z,98087.56
2022-12-05T19:45:28.897Z,98088.78
2022-12-05T19:47:56.343Z,98085.97
2022-12-05T19:50:23.798Z,98089.84
2022-12-05T19:52:51.321Z,98093.94
2022-12-05T19:55:20.132Z,98088.78
2022-12-05T19:57:47.588Z,98089.16
2022-12-05T20:00:18.803Z,98086.66
2022-12-05T20:02:50.167Z,98081.72
2022-12-05T20:05:18.020Z,98080.97
2022-12-05T20:07:45.471Z,98083.84
2022-12-05T20:10:13.013Z,98091.44
2022-12-05T20:12:41.769Z,98085.06
2022-12-05T20:15:10.363Z,98091.59
2022-12-05T20:17:37.888Z,98083.09
2022-12-05T20:20:06.508Z,98083.09
2022-12-05T20:22:33.972Z,98082.03
2022-12-05T20:25:01.905Z,98080.63
2022-12-05T20:27:29.522Z,98079.88
2022-12-05T20:29:58.512Z,98082.41
2022-12-05T20:32:26.237Z,98072.84
2022-12-05T20:34:53.772Z,98073.63
2022-12-05T20:37:21.207Z,98062.44
2022-12-05T20:39:49.631Z,98067.28
2022-12-05T20:42:17.749Z,98061.03
2022-12-05T20:44:45.216Z,98067.09
2022-12-05T20:47:13.998Z,98058.59
2022-12-05T20:49:41.565Z,98061.34
2022-12-05T20:52:08.995Z,98053.09
2022-12-05T20:54:36.439Z,98057.44
2022-12-05T20:57:03.984Z,98053.84
2022-12-05T20:59:31.769Z,98052.38
2022-12-05T21:01:59.335Z,98052.56
2022-12-05T21:04:28.381Z,98054.94
2022-12-05T21:06:55.851Z,98055.22
2022-12-05T21:09:28.477Z,98053.94
2022-12-05T21:11:56.289Z,98043.31
2022-12-05T21:14:24.000Z,98041.72
2022-12-05T21:16:52.699Z,98046.06
2022-12-05T21:19:20.410Z,98044.06
2022-12-05T21:21:49.210Z,98037.19
2022-12-05T21:24:16.648Z,98036.88
2022-12-05T21:26:44.082Z,98032.09
2022-12-05T21:29:11.707Z,98029.88
2022-12-05T21:31:41.107Z,98031.72
2022-12-05T21:34:13.673Z,98030.19
2022-12-05T21:36:41.419Z,98036.47
2022-12-05T21:39:11.059Z,98043.63
2022-12-05T21:41:39.019Z,98039.75
2022-12-05T21:44:07.196Z,98041.75
2022-12-05T21:46:34.971Z,98042.84
2022-12-05T21:49:02.612Z,98049.00
2022-12-05T21:51:30.044Z,98052.06
2022-12-05T21:53:57.506Z,98053.47
2022-12-05T21:56:26.507Z,98049.84
2022-12-05T21:58:54.156Z,98051.66
2022-12-05T22:01:24.910Z,98050.50
2022-12-05T22:03:53.583Z,98055.47
2022-12-05T22:06:21.263Z,98052.81
2022-12-05T22:08:48.694Z,98056.78
2022-12-05T22:11:18.473Z,98047.53
2022-12-05T22:13:48.663Z,98046.56
2022-12-05T22:16:16.780Z,98048.53
2022-12-05T22:18:45.043Z,98056.34
2022-12-05T22:21:17.691Z,98044.94
2022-12-05T22:23:45.663Z,98054.25
2022-12-05T22:26:14.436Z,98045.41
2022-12-05T22:28:42.113Z,98054.13
2022-12-05T22:31:13.692Z,98038.88
2022-12-05T22:33:41.463Z,98038.34
2022-12-05T22:36:11.391Z,98029.22
2022-12-05T22:38:40.855Z,98039.72
2022-12-05T22:41:11.148Z,98034.63
2022-12-05T22:43:38.850Z,98045.97
2022-12-05T22:46:07.516Z,98043.69
2022-12-05T22:48:36.750Z,98054.25
2022-12-05T22:51:05.831Z,98047.25
2022-12-05T22:53:34.102Z,98049.44
2022-12-05T22:56:06.154Z,98052.38
2022-12-05T22:58:34.016Z,98058.09
2022-12-05T23:01:10.074Z,98052.38
2022-12-05T23:03:38.961Z,98048.94
2022-12-05T23:06:11.472Z,98047.13
2022-12-05T23:08:40.505Z,98045.31
2022-12-05T23:11:09.012Z,98049.50
2022-12-05T23:13:37.030Z,98052.81
2022-12-05T23:16:09.181Z,98054.94
2022-12-05T23:18:46.492Z,98048.78
2022-12-05T23:21:17.541Z,98043.38
2022-12-05T23:23:45.485Z,98041.28
2022-12-05T23:26:13.660Z,98048.94
2022-12-05T23:28:41.100Z,98044.75
2022-12-05T23:31:10.303Z,98045.75
2022-12-05T23:33:37.872Z,98037.25
2022-12-05T23:36:06.297Z,98032.63
2022-12-05T23:38:35.961Z,98042.56
2022-12-05T23:41:05.014Z,98045.91
2022-12-05T23:43:34.581Z,98036.03
2022-12-05T23:46:02.335Z,98037.28
2022-12-05T23:48:30.260Z,98035.38
2022-12-05T23:51:01.984Z,98038.34
2022-12-05T23:53:30.720Z,98036.31
2022-12-05T23:56:02.814Z,98038.56
2022-12-05T23:58:31.206Z,98032.13
